sensor_id;sensor_type;location;lat;lon;timestamp;P1;durP1;ratioP1;P2;durP2;ratioP2
22282;SDS011;11310;51.528;21.204;2023-12-20T00:00:17;10.45;;;4.18;;
22282;SDS011;11310;51.528;21.204;2023-12-20T00:02:46;10.60;;;4.30;;
22282;SDS011;11310;51.528;21.204;2023-12-20T00:05:14;12.55;;;4.70;;
22282;SDS011;11310;51.528;21.204;2023-12-20T00:07:44;12.73;;;4.60;;
22282;SDS011;11310;51.528;21.204;2023-12-20T00:10:13;11.77;;;5.03;;
22282;SDS011;11310;51.528;21.204;2023-12-20T00:12:41;11.10;;;4.45;;
22282;SDS011;11310;51.528;21.204;2023-12-20T00:15:10;13.98;;;5.63;;
22282;SDS011;11310;51.528;21.204;2023-12-20T00:17:40;14.73;;;5.78;;
22282;SDS011;11310;51.528;21.204;2023-12-20T00:20:09;11.80;;;4.78;;
22282;SDS011;11310;51.528;21.204;2023-12-20T00:22:39;10.93;;;5.05;;
22282;SDS011;11310;51.528;21.204;2023-12-20T00:25:10;12.30;;;5.07;;
22282;SDS011;11310;51.528;21.204;2023-12-20T00:27:38;10.90;;;4.78;;
22282;SDS011;11310;51.528;21.204;2023-12-20T00:30:07;15.48;;;4.95;;
22282;SDS011;11310;51.528;21.204;2023-12-20T00:32:36;12.13;;;5.38;;
22282;SDS011;11310;51.528;21.204;2023-12-20T00:35:08;13.38;;;4.30;;
22282;SDS011;11310;51.528;21.204;2023-12-20T00:37:37;15.07;;;5.18;;
22282;SDS011;11310;51.528;21.204;2023-12-20T00:40:07;9.93;;;4.28;;
22282;SDS011;11310;51.528;21.204;2023-12-20T00:42:37;12.20;;;4.57;;
22282;SDS011;11310;51.528;21.204;2023-12-20T00:45:06;11.68;;;4.65;;
22282;SDS011;11310;51.528;21.204;2023-12-20T00:47:34;12.18;;;4.85;;
22282;SDS011;11310;51.528;21.204;2023-12-20T00:50:03;10.45;;;4.38;;
22282;SDS011;11310;51.528;21.204;2023-12-20T00:52:32;12.18;;;4.78;;
22282;SDS011;11310;51.528;21.204;2023-12-20T00:55:00;15.55;;;5.25;;
22282;SDS011;11310;51.528;21.204;2023-12-20T00:57:29;10.70;;;4.57;;
22282;SDS011;11310;51.528;21.204;2023-12-20T00:59:59;14.70;;;4.85;;
22282;SDS011;11310;51.528;21.204;2023-12-20T01:02:27;15.00;;;5.65;;
22282;SDS011;11310;51.528;21.204;2023-12-20T01:04:56;14.43;;;5.85;;
22282;SDS011;11310;51.528;21.204;2023-12-20T01:07:24;13.25;;;5.35;;
22282;SDS011;11310;51.528;21.204;2023-12-20T01:09:52;10.73;;;5.00;;
22282;SDS011;11310;51.528;21.204;2023-12-20T01:12:24;11.25;;;4.47;;
22282;SDS011;11310;51.528;21.204;2023-12-20T01:17:22;9.48;;;4.63;;
22282;SDS011;11310;51.528;21.204;2023-12-20T01:19:51;12.45;;;5.20;;
22282;SDS011;11310;51.528;21.204;2023-12-20T01:22:20;8.68;;;4.13;;
22282;SDS011;11310;51.528;21.204;2023-12-20T01:24:49;10.15;;;4.43;;
22282;SDS011;11310;51.528;21.204;2023-12-20T01:27:18;10.50;;;4.75;;
22282;SDS011;11310;51.528;21.204;2023-12-20T01:29:46;13.45;;;4.80;;
22282;SDS011;11310;51.528;21.204;2023-12-20T01:32:14;10.13;;;4.55;;
22282;SDS011;11310;51.528;21.204;2023-12-20T01:34:44;13.75;;;5.20;;
22282;SDS011;11310;51.528;21.204;2023-12-20T01:37:13;9.20;;;4.63;;
22282;SDS011;11310;51.528;21.204;2023-12-20T01:39:41;9.23;;;4.10;;
22282;SDS011;11310;51.528;21.204;2023-12-20T01:42:10;11.63;;;4.85;;
22282;SDS011;11310;51.528;21.204;2023-12-20T01:44:38;13.07;;;4.78;;
22282;SDS011;11310;51.528;21.204;2023-12-20T01:47:07;11.85;;;5.30;;
22282;SDS011;11310;51.528;21.204;2023-12-20T01:49:36;11.38;;;4.68;;
22282;SDS011;11310;51.528;21.204;2023-12-20T01:52:06;9.27;;;4.25;;
22282;SDS011;11310;51.528;21.204;2023-12-20T01:54:39;10.05;;;4.60;;
22282;SDS011;11310;51.528;21.204;2023-12-20T01:57:09;9.73;;;4.65;;
22282;SDS011;11310;51.528;21.204;2023-12-20T01:59:38;12.10;;;4.28;;
22282;SDS011;11310;51.528;21.204;2023-12-20T02:02:08;11.63;;;4.70;;
22282;SDS011;11310;51.528;21.204;2023-12-20T02:04:39;11.25;;;4.30;;
22282;SDS011;11310;51.528;21.204;2023-12-20T02:07:10;10.80;;;4.93;;
22282;SDS011;11310;51.528;21.204;2023-12-20T02:09:39;10.43;;;4.75;;
22282;SDS011;11310;51.528;21.204;2023-12-20T02:12:08;9.63;;;4.55;;
22282;SDS011;11310;51.528;21.204;2023-12-20T02:14:37;12.93;;;5.07;;
22282;SDS011;11310;51.528;21.204;2023-12-20T02:17:05;11.45;;;4.82;;
22282;SDS011;11310;51.528;21.204;2023-12-20T02:19:33;11.73;;;4.82;;
22282;SDS011;11310;51.528;21.204;2023-12-20T02:22:07;13.00;;;4.88;;
22282;SDS011;11310;51.528;21.204;2023-12-20T02:24:36;13.63;;;4.32;;
22282;SDS011;11310;51.528;21.204;2023-12-20T02:27:06;9.52;;;4.63;;
22282;SDS011;11310;51.528;21.204;2023-12-20T02:29:35;12.90;;;5.65;;
22282;SDS011;11310;51.528;21.204;2023-12-20T02:32:04;9.57;;;4.20;;
22282;SDS011;11310;51.528;21.204;2023-12-20T02:34:33;10.27;;;4.40;;
22282;SDS011;11310;51.528;21.204;2023-12-20T02:37:01;9.25;;;4.95;;
22282;SDS011;11310;51.528;21.204;2023-12-20T02:39:31;10.65;;;4.72;;
22282;SDS011;11310;51.528;21.204;2023-12-20T02:42:00;11.63;;;5.10;;
22282;SDS011;11310;51.528;21.204;2023-12-20T02:44:28;10.45;;;4.55;;
22282;SDS011;11310;51.528;21.204;2023-12-20T02:46:56;11.50;;;4.70;;
22282;SDS011;11310;51.528;21.204;2023-12-20T02:49:25;9.80;;;4.47;;
22282;SDS011;11310;51.528;21.204;2023-12-20T02:51:53;9.38;;;5.10;;
22282;SDS011;11310;51.528;21.204;2023-12-20T02:54:22;9.77;;;4.63;;
22282;SDS011;11310;51.528;21.204;2023-12-20T02:56:51;10.07;;;4.72;;
22282;SDS011;11310;51.528;21.204;2023-12-20T02:59:20;9.95;;;4.55;;
22282;SDS011;11310;51.528;21.204;2023-12-20T03:01:48;11.75;;;5.00;;
22282;SDS011;11310;51.528;21.204;2023-12-20T03:04:19;8.88;;;4.55;;
22282;SDS011;11310;51.528;21.204;2023-12-20T03:06:47;10.30;;;4.70;;
22282;SDS011;11310;51.528;21.204;2023-12-20T03:09:17;9.90;;;4.72;;
22282;SDS011;11310;51.528;21.204;2023-12-20T03:11:46;11.60;;;4.97;;
22282;SDS011;11310;51.528;21.204;2023-12-20T03:14:16;10.07;;;4.45;;
22282;SDS011;11310;51.528;21.204;2023-12-20T03:16:46;9.68;;;4.72;;
22282;SDS011;11310;51.528;21.204;2023-12-20T03:19:15;8.50;;;4.45;;
22282;SDS011;11310;51.528;21.204;2023-12-20T03:21:44;10.93;;;4.55;;
22282;SDS011;11310;51.528;21.204;2023-12-20T03:24:12;9.25;;;4.47;;
22282;SDS011;11310;51.528;21.204;2023-12-20T03:26:40;10.27;;;4.88;;
22282;SDS011;11310;51.528;21.204;2023-12-20T03:29:08;8.23;;;4.20;;
22282;SDS011;11310;51.528;21.204;2023-12-20T03:31:38;9.80;;;4.38;;
22282;SDS011;11310;51.528;21.204;2023-12-20T03:34:06;7.90;;;4.03;;
22282;SDS011;11310;51.528;21.204;2023-12-20T03:36:35;10.68;;;4.60;;
22282;SDS011;11310;51.528;21.204;2023-12-20T03:39:03;9.75;;;4.00;;
22282;SDS011;11310;51.528;21.204;2023-12-20T03:41:31;11.93;;;5.28;;
22282;SDS011;11310;51.528;21.204;2023-12-20T03:44:00;10.65;;;4.68;;
22282;SDS011;11310;51.528;21.204;2023-12-20T03:46:28;10.30;;;4.70;;
22282;SDS011;11310;51.528;21.204;2023-12-20T03:48:58;10.23;;;4.38;;
22282;SDS011;11310;51.528;21.204;2023-12-20T03:51:30;10.15;;;4.70;;
22282;SDS011;11310;51.528;21.204;2023-12-20T03:53:59;9.73;;;4.05;;
22282;SDS011;11310;51.528;21.204;2023-12-20T03:56:28;10.73;;;4.82;;
22282;SDS011;11310;51.528;21.204;2023-12-20T03:58:57;8.52;;;4.38;;
22282;SDS011;11310;51.528;21.204;2023-12-20T04:01:25;9.85;;;4.55;;
22282;SDS011;11310;51.528;21.204;2023-12-20T04:03:54;8.52;;;4.43;;
22282;SDS011;11310;51.528;21.204;2023-12-20T04:06:23;9.13;;;4.60;;
22282;SDS011;11310;51.528;21.204;2023-12-20T04:08:52;9.23;;;4.55;;
22282;SDS011;11310;51.528;21.204;2023-12-20T04:11:20;9.27;;;4.35;;
22282;SDS011;11310;51.528;21.204;2023-12-20T04:13:48;9.45;;;4.55;;
22282;SDS011;11310;51.528;21.204;2023-12-20T04:16:16;7.97;;;4.20;;
22282;SDS011;11310;51.528;21.204;2023-12-20T04:18:44;8.75;;;4.20;;
22282;SDS011;11310;51.528;21.204;2023-12-20T04:21:13;7.95;;;4.18;;
22282;SDS011;11310;51.528;21.204;2023-12-20T04:23:42;14.38;;;4.50;;
22282;SDS011;11310;51.528;21.204;2023-12-20T04:26:11;6.72;;;4.00;;
22282;SDS011;11310;51.528;21.204;2023-12-20T04:28:39;7.47;;;4.07;;
22282;SDS011;11310;51.528;21.204;2023-12-20T04:31:07;13.38;;;4.18;;
22282;SDS011;11310;51.528;21.204;2023-12-20T04:33:36;8.88;;;4.18;;
22282;SDS011;11310;51.528;21.204;2023-12-20T04:36:04;11.05;;;4.93;;
22282;SDS011;11310;51.528;21.204;2023-12-20T04:38:33;8.77;;;4.13;;
22282;SDS011;11310;51.528;21.204;2023-12-20T04:41:03;9.57;;;4.43;;
22282;SDS011;11310;51.528;21.204;2023-12-20T04:43:31;10.40;;;4.28;;
22282;SDS011;11310;51.528;21.204;2023-12-20T04:46:00;6.80;;;3.53;;
22282;SDS011;11310;51.528;21.204;2023-12-20T04:48:28;7.65;;;3.95;;
22282;SDS011;11310;51.528;21.204;2023-12-20T04:50:57;9.18;;;4.32;;
22282;SDS011;11310;51.528;21.204;2023-12-20T04:53:25;6.50;;;3.33;;
22282;SDS011;11310;51.528;21.204;2023-12-20T04:55:54;8.80;;;3.50;;
22282;SDS011;11310;51.528;21.204;2023-12-20T04:58:24;8.55;;;3.45;;
22282;SDS011;11310;51.528;21.204;2023-12-20T05:00:52;7.85;;;3.78;;
22282;SDS011;11310;51.528;21.204;2023-12-20T05:03:21;7.78;;;3.10;;
22282;SDS011;11310;51.528;21.204;2023-12-20T05:05:49;6.82;;;3.28;;
22282;SDS011;11310;51.528;21.204;2023-12-20T05:08:17;6.85;;;3.45;;
22282;SDS011;11310;51.528;21.204;2023-12-20T05:10:45;6.57;;;2.90;;
22282;SDS011;11310;51.528;21.204;2023-12-20T05:13:14;5.85;;;3.22;;
22282;SDS011;11310;51.528;21.204;2023-12-20T05:15:43;7.07;;;2.90;;
22282;SDS011;11310;51.528;21.204;2023-12-20T05:18:12;7.30;;;3.15;;
22282;SDS011;11310;51.528;21.204;2023-12-20T05:20:41;5.57;;;2.78;;
22282;SDS011;11310;51.528;21.204;2023-12-20T05:23:09;5.80;;;3.20;;
22282;SDS011;11310;51.528;21.204;2023-12-20T05:25:38;8.85;;;3.65;;
22282;SDS011;11310;51.528;21.204;2023-12-20T05:28:07;8.50;;;3.42;;
22282;SDS011;11310;51.528;21.204;2023-12-20T05:30:35;5.95;;;3.13;;
22282;SDS011;11310;51.528;21.204;2023-12-20T05:33:05;8.18;;;3.67;;
22282;SDS011;11310;51.528;21.204;2023-12-20T05:35:34;8.30;;;3.90;;
22282;SDS011;11310;51.528;21.204;2023-12-20T05:38:02;7.40;;;3.45;;
22282;SDS011;11310;51.528;21.204;2023-12-20T05:40:31;7.88;;;3.28;;
22282;SDS011;11310;51.528;21.204;2023-12-20T05:42:59;8.25;;;3.30;;
22282;SDS011;11310;51.528;21.204;2023-12-20T05:45:28;9.07;;;3.50;;
22282;SDS011;11310;51.528;21.204;2023-12-20T05:47:56;8.35;;;3.17;;
22282;SDS011;11310;51.528;21.204;2023-12-20T05:50:26;7.50;;;3.30;;
22282;SDS011;11310;51.528;21.204;2023-12-20T05:52:55;6.03;;;2.83;;
22282;SDS011;11310;51.528;21.204;2023-12-20T05:55:24;6.85;;;3.35;;
22282;SDS011;11310;51.528;21.204;2023-12-20T05:57:52;7.47;;;3.40;;
22282;SDS011;11310;51.528;21.204;2023-12-20T06:00:20;7.13;;;3.40;;
22282;SDS011;11310;51.528;21.204;2023-12-20T06:02:48;8.27;;;4.25;;
22282;SDS011;11310;51.528;21.204;2023-12-20T06:05:17;6.90;;;3.53;;
22282;SDS011;11310;51.528;21.204;2023-12-20T06:07:47;6.28;;;3.17;;
22282;SDS011;11310;51.528;21.204;2023-12-20T06:10:17;7.25;;;3.25;;
22282;SDS011;11310;51.528;21.204;2023-12-20T06:12:46;6.53;;;2.80;;
22282;SDS011;11310;51.528;21.204;2023-12-20T06:15:17;7.65;;;3.10;;
22282;SDS011;11310;51.528;21.204;2023-12-20T06:17:45;8.43;;;3.60;;
22282;SDS011;11310;51.528;21.204;2023-12-20T06:20:15;7.00;;;3.70;;
22282;SDS011;11310;51.528;21.204;2023-12-20T06:22:43;6.63;;;3.38;;
22282;SDS011;11310;51.528;21.204;2023-12-20T06:25:13;6.43;;;3.08;;
22282;SDS011;11310;51.528;21.204;2023-12-20T06:27:41;10.07;;;3.28;;
22282;SDS011;11310;51.528;21.204;2023-12-20T06:30:10;7.00;;;3.22;;
22282;SDS011;11310;51.528;21.204;2023-12-20T06:32:38;6.68;;;3.42;;
22282;SDS011;11310;51.528;21.204;2023-12-20T06:35:09;7.38;;;3.38;;
22282;SDS011;11310;51.528;21.204;2023-12-20T06:37:37;5.90;;;2.45;;
22282;SDS011;11310;51.528;21.204;2023-12-20T06:40:10;5.78;;;2.85;;
22282;SDS011;11310;51.528;21.204;2023-12-20T06:42:44;6.40;;;3.10;;
22282;SDS011;11310;51.528;21.204;2023-12-20T06:45:31;6.43;;;2.85;;
22282;SDS011;11310;51.528;21.204;2023-12-20T06:48:00;5.93;;;2.95;;
22282;SDS011;11310;51.528;21.204;2023-12-20T06:50:29;8.35;;;2.88;;
22282;SDS011;11310;51.528;21.204;2023-12-20T06:52:58;5.63;;;2.58;;
22282;SDS011;11310;51.528;21.204;2023-12-20T06:55:28;5.97;;;3.05;;
22282;SDS011;11310;51.528;21.204;2023-12-20T06:57:57;6.95;;;3.15;;
22282;SDS011;11310;51.528;21.204;2023-12-20T07:00:26;7.95;;;3.10;;
22282;SDS011;11310;51.528;21.204;2023-12-20T07:02:55;6.25;;;3.20;;
22282;SDS011;11310;51.528;21.204;2023-12-20T07:05:24;6.13;;;3.10;;
22282;SDS011;11310;51.528;21.204;2023-12-20T07:07:53;8.00;;;3.85;;
22282;SDS011;11310;51.528;21.204;2023-12-20T07:10:22;10.68;;;4.35;;
22282;SDS011;11310;51.528;21.204;2023-12-20T07:12:51;8.30;;;3.95;;
22282;SDS011;11310;51.528;21.204;2023-12-20T07:15:22;7.28;;;3.38;;
22282;SDS011;11310;51.528;21.204;2023-12-20T07:17:51;6.85;;;3.22;;
22282;SDS011;11310;51.528;21.204;2023-12-20T07:20:20;6.57;;;2.92;;
22282;SDS011;11310;51.528;21.204;2023-12-20T07:22:48;6.07;;;2.95;;
22282;SDS011;11310;51.528;21.204;2023-12-20T07:25:17;6.10;;;2.50;;
22282;SDS011;11310;51.528;21.204;2023-12-20T07:27:47;4.85;;;2.60;;
22282;SDS011;11310;51.528;21.204;2023-12-20T07:30:17;5.57;;;2.53;;
22282;SDS011;11310;51.528;21.204;2023-12-20T07:32:46;5.07;;;2.78;;
22282;SDS011;11310;51.528;21.204;2023-12-20T07:35:15;10.75;;;2.78;;
22282;SDS011;11310;51.528;21.204;2023-12-20T07:37:44;4.65;;;2.33;;
22282;SDS011;11310;51.528;21.204;2023-12-20T07:40:13;6.60;;;2.80;;
22282;SDS011;11310;51.528;21.204;2023-12-20T07:42:44;6.13;;;2.72;;
22282;SDS011;11310;51.528;21.204;2023-12-20T07:45:17;5.82;;;2.63;;
22282;SDS011;11310;51.528;21.204;2023-12-20T07:47:45;5.85;;;2.92;;
22282;SDS011;11310;51.528;21.204;2023-12-20T07:50:14;5.07;;;2.60;;
22282;SDS011;11310;51.528;21.204;2023-12-20T07:52:43;4.75;;;2.50;;
22282;SDS011;11310;51.528;21.204;2023-12-20T07:55:12;3.92;;;2.28;;
22282;SDS011;11310;51.528;21.204;2023-12-20T07:57:46;7.07;;;3.00;;
22282;SDS011;11310;51.528;21.204;2023-12-20T08:00:17;6.70;;;3.15;;
22282;SDS011;11310;51.528;21.204;2023-12-20T08:02:49;4.68;;;2.42;;
22282;SDS011;11310;51.528;21.204;2023-12-20T08:05:19;4.90;;;2.35;;
22282;SDS011;11310;51.528;21.204;2023-12-20T08:07:47;5.38;;;2.42;;
22282;SDS011;11310;51.528;21.204;2023-12-20T08:10:16;3.15;;;1.73;;
22282;SDS011;11310;51.528;21.204;2023-12-20T08:12:46;3.78;;;2.03;;
22282;SDS011;11310;51.528;21.204;2023-12-20T08:15:15;3.00;;;1.50;;
22282;SDS011;11310;51.528;21.204;2023-12-20T08:17:44;4.03;;;1.98;;
22282;SDS011;11310;51.528;21.204;2023-12-20T08:20:13;4.80;;;2.15;;
22282;SDS011;11310;51.528;21.204;2023-12-20T08:22:52;3.85;;;1.75;;
22282;SDS011;11310;51.528;21.204;2023-12-20T08:25:20;6.25;;;2.03;;
22282;SDS011;11310;51.528;21.204;2023-12-20T08:27:49;3.55;;;1.70;;
22282;SDS011;11310;51.528;21.204;2023-12-20T08:30:21;4.82;;;2.17;;
22282;SDS011;11310;51.528;21.204;2023-12-20T08:32:50;5.07;;;2.17;;
22282;SDS011;11310;51.528;21.204;2023-12-20T08:35:18;3.15;;;2.10;;
22282;SDS011;11310;51.528;21.204;2023-12-20T08:37:47;3.72;;;2.13;;
22282;SDS011;11310;51.528;21.204;2023-12-20T08:40:16;4.32;;;1.98;;
22282;SDS011;11310;51.528;21.204;2023-12-20T08:42:44;3.30;;;1.70;;
22282;SDS011;11310;51.528;21.204;2023-12-20T08:45:13;5.07;;;1.90;;
22282;SDS011;11310;51.528;21.204;2023-12-20T08:47:42;4.22;;;1.92;;
22282;SDS011;11310;51.528;21.204;2023-12-20T08:50:14;5.60;;;2.28;;
22282;SDS011;11310;51.528;21.204;2023-12-20T08:52:43;5.53;;;2.40;;
22282;SDS011;11310;51.528;21.204;2023-12-20T08:55:12;6.28;;;2.10;;
22282;SDS011;11310;51.528;21.204;2023-12-20T08:57:43;6.47;;;2.47;;
22282;SDS011;11310;51.528;21.204;2023-12-20T09:00:12;6.10;;;2.20;;
22282;SDS011;11310;51.528;21.204;2023-12-20T09:02:43;5.22;;;1.98;;
22282;SDS011;11310;51.528;21.204;2023-12-20T09:05:11;3.97;;;1.75;;
22282;SDS011;11310;51.528;21.204;2023-12-20T09:07:40;3.33;;;1.40;;
22282;SDS011;11310;51.528;21.204;2023-12-20T09:10:08;4.30;;;1.58;;
22282;SDS011;11310;51.528;21.204;2023-12-20T09:12:37;6.18;;;2.08;;
22282;SDS011;11310;51.528;21.204;2023-12-20T09:15:10;6.28;;;2.22;;
22282;SDS011;11310;51.528;21.204;2023-12-20T09:17:38;3.55;;;1.70;;
22282;SDS011;11310;51.528;21.204;2023-12-20T09:20:10;4.72;;;1.80;;
22282;SDS011;11310;51.528;21.204;2023-12-20T09:22:40;2.78;;;1.55;;
22282;SDS011;11310;51.528;21.204;2023-12-20T09:25:09;3.22;;;1.45;;
22282;SDS011;11310;51.528;21.204;2023-12-20T09:27:39;2.42;;;1.50;;
22282;SDS011;11310;51.528;21.204;2023-12-20T09:30:09;5.60;;;1.58;;
22282;SDS011;11310;51.528;21.204;2023-12-20T09:32:37;2.65;;;1.50;;
22282;SDS011;11310;51.528;21.204;2023-12-20T09:35:06;4.50;;;1.63;;
22282;SDS011;11310;51.528;21.204;2023-12-20T09:37:37;4.43;;;1.50;;
22282;SDS011;11310;51.528;21.204;2023-12-20T09:40:08;3.03;;;1.55;;
22282;SDS011;11310;51.528;21.204;2023-12-20T09:42:45;2.45;;;1.17;;
22282;SDS011;11310;51.528;21.204;2023-12-20T09:45:17;4.18;;;1.38;;
22282;SDS011;11310;51.528;21.204;2023-12-20T09:47:52;2.35;;;1.20;;
22282;SDS011;11310;51.528;21.204;2023-12-20T09:50:21;4.88;;;1.30;;
22282;SDS011;11310;51.528;21.204;2023-12-20T09:52:51;3.55;;;0.98;;
22282;SDS011;11310;51.528;21.204;2023-12-20T09:55:23;3.15;;;1.30;;
22282;SDS011;11310;51.528;21.204;2023-12-20T09:57:53;2.22;;;1.20;;
22282;SDS011;11310;51.528;21.204;2023-12-20T10:00:22;3.97;;;1.40;;
22282;SDS011;11310;51.528;21.204;2023-12-20T10:02:50;2.70;;;1.50;;
22282;SDS011;11310;51.528;21.204;2023-12-20T10:05:26;2.15;;;1.25;;
22282;SDS011;11310;51.528;21.204;2023-12-20T10:07:57;1.83;;;1.13;;
22282;SDS011;11310;51.528;21.204;2023-12-20T10:10:28;2.17;;;1.30;;
22282;SDS011;11310;51.528;21.204;2023-12-20T10:13:11;2.00;;;1.40;;
22282;SDS011;11310;51.528;21.204;2023-12-20T10:15:41;4.32;;;1.50;;
22282;SDS011;11310;51.528;21.204;2023-12-20T10:18:09;2.60;;;1.50;;
22282;SDS011;11310;51.528;21.204;2023-12-20T10:20:40;2.15;;;1.17;;
22282;SDS011;11310;51.528;21.204;2023-12-20T10:23:11;3.25;;;1.42;;
22282;SDS011;11310;51.528;21.204;2023-12-20T10:25:40;1.77;;;1.02;;
22282;SDS011;11310;51.528;21.204;2023-12-20T10:28:09;2.25;;;1.20;;
22282;SDS011;11310;51.528;21.204;2023-12-20T10:30:39;2.58;;;1.20;;
22282;SDS011;11310;51.528;21.204;2023-12-20T10:33:09;1.50;;;0.90;;
22282;SDS011;11310;51.528;21.204;2023-12-20T10:35:39;3.10;;;1.38;;
22282;SDS011;11310;51.528;21.204;2023-12-20T10:38:14;3.00;;;1.45;;
22282;SDS011;11310;51.528;21.204;2023-12-20T10:40:43;4.03;;;1.50;;
22282;SDS011;11310;51.528;21.204;2023-12-20T10:43:13;5.90;;;1.80;;
22282;SDS011;11310;51.528;21.204;2023-12-20T10:45:43;3.60;;;1.75;;
22282;SDS011;11310;51.528;21.204;2023-12-20T10:48:11;5.72;;;2.25;;
22282;SDS011;11310;51.528;21.204;2023-12-20T10:50:40;6.60;;;2.65;;
22282;SDS011;11310;51.528;21.204;2023-12-20T10:53:10;6.03;;;2.15;;
22282;SDS011;11310;51.528;21.204;2023-12-20T10:55:42;3.53;;;1.83;;
22282;SDS011;11310;51.528;21.204;2023-12-20T10:58:12;3.83;;;1.70;;
22282;SDS011;11310;51.528;21.204;2023-12-20T11:00:42;1.73;;;1.20;;
22282;SDS011;11310;51.528;21.204;2023-12-20T11:03:13;2.38;;;1.25;;
22282;SDS011;11310;51.528;21.204;2023-12-20T11:05:46;3.78;;;1.25;;
22282;SDS011;11310;51.528;21.204;2023-12-20T11:08:25;6.38;;;2.15;;
22282;SDS011;11310;51.528;21.204;2023-12-20T11:10:59;6.10;;;1.83;;
22282;SDS011;11310;51.528;21.204;2023-12-20T11:13:32;2.47;;;1.20;;
22282;SDS011;11310;51.528;21.204;2023-12-20T11:16:07;4.85;;;1.70;;
22282;SDS011;11310;51.528;21.204;2023-12-20T11:18:36;3.53;;;1.45;;
22282;SDS011;11310;51.528;21.204;2023-12-20T11:21:04;2.53;;;1.05;;
22282;SDS011;11310;51.528;21.204;2023-12-20T11:23:34;2.75;;;1.00;;
22282;SDS011;11310;51.528;21.204;2023-12-20T11:26:03;4.85;;;1.20;;
22282;SDS011;11310;51.528;21.204;2023-12-20T11:28:31;3.00;;;1.20;;
22282;SDS011;11310;51.528;21.204;2023-12-20T11:31:00;1.42;;;1.13;;
22282;SDS011;11310;51.528;21.204;2023-12-20T11:33:35;5.95;;;1.50;;
22282;SDS011;11310;51.528;21.204;2023-12-20T11:36:12;5.07;;;1.50;;
22282;SDS011;11310;51.528;21.204;2023-12-20T11:38:50;4.80;;;1.67;;
22282;SDS011;11310;51.528;21.204;2023-12-20T11:41:22;2.80;;;1.48;;
22282;SDS011;11310;51.528;21.204;2023-12-20T11:43:52;3.17;;;1.23;;
22282;SDS011;11310;51.528;21.204;2023-12-20T11:46:21;5.18;;;1.52;;
22282;SDS011;11310;51.528;21.204;2023-12-20T11:48:50;2.33;;;1.20;;
22282;SDS011;11310;51.528;21.204;2023-12-20T11:51:20;2.40;;;1.42;;
22282;SDS011;11310;51.528;21.204;2023-12-20T11:53:52;3.47;;;1.48;;
22282;SDS011;11310;51.528;21.204;2023-12-20T11:56:21;2.83;;;1.13;;
22282;SDS011;11310;51.528;21.204;2023-12-20T11:58:50;2.65;;;1.48;;
22282;SDS011;11310;51.528;21.204;2023-12-20T12:01:19;2.35;;;1.20;;
22282;SDS011;11310;51.528;21.204;2023-12-20T12:03:48;1.88;;;1.00;;
22282;SDS011;11310;51.528;21.204;2023-12-20T12:06:18;5.30;;;1.60;;
22282;SDS011;11310;51.528;21.204;2023-12-20T12:08:46;3.58;;;1.30;;
22282;SDS011;11310;51.528;21.204;2023-12-20T12:11:16;2.42;;;1.42;;
22282;SDS011;11310;51.528;21.204;2023-12-20T12:13:44;4.78;;;1.30;;
22282;SDS011;11310;51.528;21.204;2023-12-20T12:16:16;1.80;;;1.27;;
22282;SDS011;11310;51.528;21.204;2023-12-20T12:18:46;2.25;;;1.20;;
22282;SDS011;11310;51.528;21.204;2023-12-20T12:21:26;3.10;;;1.40;;
22282;SDS011;11310;51.528;21.204;2023-12-20T12:24:06;3.55;;;1.25;;
22282;SDS011;11310;51.528;21.204;2023-12-20T12:26:37;4.22;;;1.52;;
22282;SDS011;11310;51.528;21.204;2023-12-20T12:29:07;3.00;;;1.27;;
22282;SDS011;11310;51.528;21.204;2023-12-20T12:31:36;4.07;;;1.52;;
22282;SDS011;11310;51.528;21.204;2023-12-20T12:34:04;5.55;;;2.13;;
22282;SDS011;11310;51.528;21.204;2023-12-20T12:36:36;2.35;;;1.23;;
22282;SDS011;11310;51.528;21.204;2023-12-20T12:39:05;3.25;;;1.27;;
22282;SDS011;11310;51.528;21.204;2023-12-20T12:41:33;3.58;;;1.55;;
22282;SDS011;11310;51.528;21.204;2023-12-20T12:44:03;5.32;;;1.40;;
22282;SDS011;11310;51.528;21.204;2023-12-20T12:46:43;2.30;;;1.20;;
22282;SDS011;11310;51.528;21.204;2023-12-20T12:49:12;3.40;;;1.58;;
22282;SDS011;11310;51.528;21.204;2023-12-20T12:51:40;3.35;;;1.50;;
22282;SDS011;11310;51.528;21.204;2023-12-20T12:54:09;2.88;;;1.40;;
22282;SDS011;11310;51.528;21.204;2023-12-20T12:56:39;3.33;;;1.30;;
22282;SDS011;11310;51.528;21.204;2023-12-20T12:59:09;3.67;;;1.42;;
22282;SDS011;11310;51.528;21.204;2023-12-20T13:01:38;3.70;;;1.63;;
22282;SDS011;11310;51.528;21.204;2023-12-20T13:04:07;3.55;;;1.45;;
22282;SDS011;11310;51.528;21.204;2023-12-20T13:06:37;3.70;;;1.88;;
22282;SDS011;11310;51.528;21.204;2023-12-20T13:09:08;6.00;;;2.20;;
22282;SDS011;11310;51.528;21.204;2023-12-20T13:11:37;4.95;;;1.98;;
22282;SDS011;11310;51.528;21.204;2023-12-20T13:14:06;3.13;;;1.50;;
22282;SDS011;11310;51.528;21.204;2023-12-20T13:16:41;3.08;;;1.80;;
22282;SDS011;11310;51.528;21.204;2023-12-20T13:19:09;2.90;;;1.70;;
22282;SDS011;11310;51.528;21.204;2023-12-20T13:21:39;3.83;;;2.00;;
22282;SDS011;11310;51.528;21.204;2023-12-20T13:24:07;4.00;;;1.90;;
22282;SDS011;11310;51.528;21.204;2023-12-20T13:26:36;5.28;;;1.90;;
22282;SDS011;11310;51.528;21.204;2023-12-20T13:29:05;4.43;;;2.10;;
22282;SDS011;11310;51.528;21.204;2023-12-20T13:31:33;3.67;;;2.13;;
22282;SDS011;11310;51.528;21.204;2023-12-20T13:34:05;4.22;;;2.28;;
22282;SDS011;11310;51.528;21.204;2023-12-20T13:36:33;5.07;;;1.90;;
22282;SDS011;11310;51.528;21.204;2023-12-20T13:39:05;3.60;;;1.98;;
22282;SDS011;11310;51.528;21.204;2023-12-20T13:41:34;7.18;;;1.80;;
22282;SDS011;11310;51.528;21.204;2023-12-20T13:44:02;2.67;;;1.42;;
22282;SDS011;11310;51.528;21.204;2023-12-20T13:46:31;3.92;;;1.60;;
22282;SDS011;11310;51.528;21.204;2023-12-20T13:48:59;2.38;;;1.38;;
22282;SDS011;11310;51.528;21.204;2023-12-20T13:51:30;2.28;;;1.23;;
22282;SDS011;11310;51.528;21.204;2023-12-20T13:54:02;3.50;;;2.05;;
22282;SDS011;11310;51.528;21.204;2023-12-20T13:56:31;2.13;;;1.10;;
22282;SDS011;11310;51.528;21.204;2023-12-20T13:59:13;3.67;;;1.50;;
22282;SDS011;11310;51.528;21.204;2023-12-20T14:01:42;4.38;;;1.80;;
22282;SDS011;11310;51.528;21.204;2023-12-20T14:04:11;5.00;;;1.65;;
22282;SDS011;11310;51.528;21.204;2023-12-20T14:07:01;4.53;;;2.20;;
22282;SDS011;11310;51.528;21.204;2023-12-20T14:09:29;6.18;;;2.25;;
22282;SDS011;11310;51.528;21.204;2023-12-20T14:11:58;4.50;;;2.25;;
22282;SDS011;11310;51.528;21.204;2023-12-20T14:14:26;6.95;;;2.17;;
22282;SDS011;11310;51.528;21.204;2023-12-20T14:16:55;8.43;;;3.20;;
22282;SDS011;11310;51.528;21.204;2023-12-20T14:19:23;7.38;;;3.10;;
22282;SDS011;11310;51.528;21.204;2023-12-20T14:21:53;6.65;;;3.10;;
22282;SDS011;11310;51.528;21.204;2023-12-20T14:24:26;7.43;;;3.15;;
22282;SDS011;11310;51.528;21.204;2023-12-20T14:26:58;4.43;;;2.30;;
22282;SDS011;11310;51.528;21.204;2023-12-20T14:29:27;6.53;;;2.63;;
22282;SDS011;11310;51.528;21.204;2023-12-20T14:31:55;5.43;;;2.20;;
22282;SDS011;11310;51.528;21.204;2023-12-20T14:34:24;5.43;;;2.53;;
22282;SDS011;11310;51.528;21.204;2023-12-20T14:36:53;6.70;;;2.33;;
22282;SDS011;11310;51.528;21.204;2023-12-20T14:39:25;5.30;;;2.28;;
22282;SDS011;11310;51.528;21.204;2023-12-20T14:41:54;6.13;;;2.60;;
22282;SDS011;11310;51.528;21.204;2023-12-20T14:44:23;6.43;;;3.13;;
22282;SDS011;11310;51.528;21.204;2023-12-20T14:46:51;8.90;;;2.90;;